• pl
  • eng

Awiacja
WIADOMOŚCI
ostatnia aktualizacja: 26.03.2018 14:15
Szanowni Państwo,

uprzejmie informujemy, że od dnia 29 marca br., od godziny 08.30 UTC, IMGW-PIB wprowadza zmianę częstotliwości wydawania prognoz TAF FT dla lotnisk EPWA, EPKK i EPWR. Od tego terminu prognozy będą publikowane co 3 godziny. Okres ich ważności nie ulega zmianie.

TAF FC 13:30 23.04.2018
  • WIND
  • SIGNIFICANT EURO
  • SIGNIFICANT
  • SIGMET
  • AIRMET
  • TAF FC
  • TAF FT
  • METAR GG30
  • METAR GG00


TAF EPLB 231130Z 2312/2321 18007KT CAVOK
PROB40 TEMPO 2318/2321 -SHRA BKN030CB=

TAF EPRA 231130Z 2312/2321 16008KT CAVOK
TEMPO 2315/2321 6000 SHRA BKN030CB
PROB40 TEMPO 2317/2321 VRB15G25KT 4000 TSRA BKN020CB
BECMG 2319/2321 24010KT=

TAF EPSY 231130Z 2312/2321 19010KT CAVOK
PROB40 TEMPO 2312/2321 6000 SHRA BKN020CB
PROB30 TEMPO 2316/2321 VRB15G30KT 4000 TSRA=

TAF EPZG 231130Z 2312/2321 25008KT CAVOK
TEMPO 2312/2321 BKN035CB
PROB40 TEMPO 2312/2318 27018G30KT 2500 TSRA BKN014CB=
Awiacja.imgw.pl jest pogodowym serwisem informacyjnym
Instytutu Meteorologii i Gospodarki Wodnej Państwowego Instytutu Badawczego.
Copyright IMGW PIB 2009-2011© Wszelkie prawa zastrzeżone.